createdAt,value
2019-02-20T00:01:20.280Z,14.90
2019-02-20T00:03:47.276Z,14.80
2019-02-20T00:06:14.077Z,15.88
2019-02-20T00:08:40.981Z,14.98
2019-02-20T00:11:07.887Z,15.40
2019-02-20T00:13:34.805Z,16.82
2019-02-20T00:16:01.693Z,14.93
2019-02-20T00:18:28.722Z,15.30
2019-02-20T00:20:55.632Z,14.87
2019-02-20T00:23:22.544Z,13.58
2019-02-20T00:25:49.348Z,13.93
2019-02-20T00:28:16.261Z,14.68
2019-02-20T00:30:43.049Z,13.78
2019-02-20T00:33:10.001Z,13.88
2019-02-20T00:35:36.802Z,13.22
2019-02-20T00:38:03.697Z,13.88
2019-02-20T00:40:30.705Z,13.60
2019-02-20T00:42:57.521Z,13.32
2019-02-20T00:45:39.954Z,15.38
2019-02-20T00:48:15.062Z,15.58
2019-02-20T00:50:42.472Z,14.85
2019-02-20T00:53:20.453Z,16.27
2019-02-20T00:55:47.341Z,16.93
2019-02-20T00:58:14.333Z,16.62
2019-02-20T01:00:41.449Z,15.43
2019-02-20T01:03:08.356Z,15.90
2019-02-20T01:05:35.353Z,17.25
2019-02-20T01:08:02.353Z,15.72
2019-02-20T01:10:29.169Z,16.07
2019-02-20T01:12:56.161Z,15.65
2019-02-20T01:15:23.057Z,16.93
2019-02-20T01:17:49.978Z,15.08
2019-02-20T01:20:16.887Z,15.80
2019-02-20T01:22:43.674Z,15.65
2019-02-20T01:25:10.668Z,16.62
2019-02-20T01:27:37.458Z,17.00
2019-02-20T01:30:04.647Z,15.80
2019-02-20T01:32:31.444Z,16.12
2019-02-20T01:34:58.251Z,14.78
2019-02-20T01:37:25.157Z,15.75
2019-02-20T01:39:52.088Z,14.95
2019-02-20T01:42:18.989Z,14.83
2019-02-20T01:44:45.808Z,16.23
2019-02-20T01:47:12.696Z,14.47
2019-02-20T01:49:39.718Z,14.65
2019-02-20T01:52:06.707Z,16.30
2019-02-20T01:54:33.510Z,15.78
2019-02-20T01:57:00.298Z,15.65
2019-02-20T01:59:27.201Z,16.00
2019-02-20T02:01:53.989Z,15.38
2019-02-20T02:04:21.097Z,14.73
2019-02-20T02:06:47.906Z,14.35
2019-02-20T02:09:15.023Z,15.93
2019-02-20T02:11:41.826Z,15.45
2019-02-20T02:14:08.713Z,16.20
2019-02-20T02:16:35.632Z,14.07
2019-02-20T02:19:02.653Z,15.85
2019-02-20T02:21:29.670Z,16.35
2019-02-20T02:23:56.537Z,16.70
2019-02-20T02:26:23.436Z,14.80
2019-02-20T02:28:50.363Z,17.17
2019-02-20T02:31:17.270Z,14.85
2019-02-20T02:33:44.161Z,15.55
2019-02-20T02:36:10.973Z,14.47
2019-02-20T02:38:37.776Z,17.40
2019-02-20T02:41:04.789Z,15.80
2019-02-20T02:43:31.792Z,16.05
2019-02-20T02:45:58.812Z,15.83
2019-02-20T02:48:25.607Z,16.82
2019-02-20T02:50:52.513Z,16.85
2019-02-20T02:53:19.441Z,14.35
2019-02-20T02:55:48.342Z,14.18
2019-02-20T02:58:15.148Z,14.58
2019-02-20T03:00:41.949Z,14.93
2019-02-20T03:03:09.008Z,14.75
2019-02-20T03:05:35.825Z,13.68
2019-02-20T03:08:02.822Z,14.23
2019-02-20T03:10:29.639Z,15.23
2019-02-20T03:12:56.525Z,16.35
2019-02-20T03:15:23.467Z,16.52
2019-02-20T03:17:50.417Z,15.88
2019-02-20T03:20:17.346Z,17.85
2019-02-20T03:22:44.158Z,16.80
2019-02-20T03:25:11.127Z,18.27
2019-02-20T03:27:38.118Z,39.58
2019-02-20T03:30:05.246Z,21.17
2019-02-20T03:32:32.147Z,17.02
2019-02-20T03:34:58.950Z,16.82
2019-02-20T03:37:25.773Z,16.05
2019-02-20T03:39:52.577Z,16.50
2019-02-20T03:42:19.478Z,16.05
2019-02-20T03:44:46.285Z,15.53
2019-02-20T03:47:13.090Z,14.75
2019-02-20T03:49:40.005Z,16.70
2019-02-20T03:52:06.831Z,16.93
2019-02-20T03:54:33.724Z,31.17
2019-02-20T03:57:00.540Z,23.15
2019-02-20T03:59:27.598Z,31.87
2019-02-20T04:01:54.501Z,19.90
2019-02-20T04:04:21.518Z,17.48
2019-02-20T04:06:48.512Z,16.35
2019-02-20T04:09:15.306Z,15.15
2019-02-20T04:11:42.133Z,26.55
2019-02-20T04:14:09.126Z,24.15
2019-02-20T04:16:35.952Z,24.55
2019-02-20T04:19:02.939Z,49.00
2019-02-20T04:21:29.950Z,38.13
2019-02-20T04:24:02.253Z,26.05
2019-02-20T04:26:25.602Z,22.05
2019-02-20T04:28:52.501Z,47.60
2019-02-20T04:31:19.404Z,19.32
2019-02-20T04:33:46.306Z,25.15
2019-02-20T04:36:13.201Z,44.08
2019-02-20T04:38:40.006Z,17.92
2019-02-20T04:41:06.916Z,19.65
2019-02-20T04:43:33.813Z,24.47
2019-02-20T04:46:00.866Z,15.32
2019-02-20T04:48:27.787Z,16.30
2019-02-20T04:50:54.810Z,20.68
2019-02-20T04:53:21.713Z,20.27
2019-02-20T04:55:48.505Z,21.85
2019-02-20T04:58:19.523Z,33.98
2019-02-20T05:00:46.534Z,34.23
2019-02-20T05:03:13.566Z,50.55
2019-02-20T05:05:40.567Z,33.45
2019-02-20T05:08:07.396Z,21.68
2019-02-20T05:10:34.302Z,17.50
2019-02-20T05:13:01.110Z,18.73
2019-02-20T05:15:28.110Z,18.37
2019-02-20T05:17:55.018Z,18.02
2019-02-20T05:20:21.833Z,17.87
2019-02-20T05:22:48.637Z,20.57
2019-02-20T05:25:15.559Z,22.50
2019-02-20T05:27:42.341Z,20.90
2019-02-20T05:30:09.358Z,29.80
2019-02-20T05:32:36.277Z,22.98
2019-02-20T05:35:03.324Z,18.20
2019-02-20T05:37:30.134Z,19.73
2019-02-20T05:39:56.940Z,21.50
2019-02-20T05:42:23.850Z,21.73
2019-02-20T05:44:50.786Z,33.40
2019-02-20T05:47:17.578Z,31.20
2019-02-20T05:49:44.386Z,51.02
2019-02-20T05:52:11.189Z,50.90
2019-02-20T05:54:38.078Z,25.88
2019-02-20T05:57:04.982Z,21.70
2019-02-20T05:59:31.790Z,21.23
2019-02-20T06:01:58.692Z,19.42
2019-02-20T06:04:25.581Z,20.68
2019-02-20T06:06:52.365Z,20.65
2019-02-20T06:09:19.379Z,27.60
2019-02-20T06:11:46.304Z,38.23
2019-02-20T06:14:13.109Z,28.45
2019-02-20T06:16:40.113Z,29.52
2019-02-20T06:19:06.930Z,29.80
2019-02-20T06:21:33.714Z,23.62
2019-02-20T06:24:00.513Z,19.65
2019-02-20T06:26:27.405Z,20.72
2019-02-20T06:28:54.237Z,21.02
2019-02-20T06:31:21.016Z,27.10
2019-02-20T06:33:48.022Z,19.55
2019-02-20T06:36:14.807Z,18.82
2019-02-20T06:38:41.634Z,17.85
2019-02-20T06:41:08.523Z,19.73
2019-02-20T06:43:35.451Z,18.98
2019-02-20T06:46:02.438Z,19.82
2019-02-20T06:48:29.355Z,18.12
2019-02-20T06:50:56.152Z,18.98
2019-02-20T06:53:22.932Z,21.02
2019-02-20T06:55:49.825Z,21.60
2019-02-20T06:58:16.707Z,20.75
2019-02-20T07:00:43.692Z,20.17
2019-02-20T07:03:10.513Z,19.42
2019-02-20T07:05:39.672Z,19.95
2019-02-20T07:08:27.680Z,19.42
2019-02-20T07:11:19.594Z,19.62
2019-02-20T07:13:56.327Z,21.25
2019-02-20T07:16:46.970Z,19.15
2019-02-20T07:19:51.874Z,19.32
2019-02-20T07:22:41.613Z,19.55
2019-02-20T07:25:19.265Z,19.42
2019-02-20T07:28:19.968Z,18.60
2019-02-20T07:30:46.776Z,19.23
2019-02-20T07:33:13.582Z,18.15
2019-02-20T07:35:40.414Z,18.27
2019-02-20T07:38:07.417Z,18.40
2019-02-20T07:40:34.339Z,17.67
2019-02-20T07:43:01.141Z,16.93
2019-02-20T07:45:28.049Z,16.93
2019-02-20T07:47:54.969Z,19.60
2019-02-20T07:50:21.888Z,15.03
2019-02-20T07:52:49.622Z,15.47
2019-02-20T07:55:16.540Z,14.70
2019-02-20T07:57:43.464Z,15.97
2019-02-20T08:00:11.610Z,14.73
2019-02-20T08:02:38.589Z,16.17
2019-02-20T08:05:05.595Z,15.93
2019-02-20T08:07:32.404Z,13.70
2019-02-20T08:09:59.394Z,12.47
2019-02-20T08:12:26.287Z,13.03
2019-02-20T08:14:53.104Z,12.70
2019-02-20T08:17:19.893Z,12.77
2019-02-20T08:19:46.805Z,11.50
2019-02-20T08:22:13.588Z,11.77
2019-02-20T08:24:40.497Z,13.83
2019-02-20T08:27:07.292Z,10.63
2019-02-20T08:29:34.085Z,11.13
2019-02-20T08:32:00.997Z,12.40
2019-02-20T08:34:27.986Z,12.40
2019-02-20T08:36:54.777Z,11.13
2019-02-20T08:39:21.553Z,10.97
2019-02-20T08:41:48.550Z,10.93
2019-02-20T08:44:15.353Z,10.67
2019-02-20T08:46:42.448Z,11.23
2019-02-20T08:49:09.368Z,32.00
2019-02-20T08:51:36.241Z,66.43
2019-02-20T08:54:04.519Z,18.00
2019-02-20T08:56:31.647Z,14.70
2019-02-20T08:58:58.443Z,26.60
2019-02-20T09:01:25.328Z,11.70
2019-02-20T09:03:52.237Z,12.87
2019-02-20T09:06:19.145Z,17.33
2019-02-20T09:08:45.945Z,11.17
2019-02-20T09:11:12.888Z,11.03
2019-02-20T09:13:39.778Z,12.40
2019-02-20T09:16:06.609Z,10.53
2019-02-20T09:18:33.550Z,11.77
2019-02-20T09:21:00.346Z,12.23
2019-02-20T09:23:27.245Z,12.00
2019-02-20T09:25:54.157Z,11.57
2019-02-20T09:28:21.197Z,12.43
2019-02-20T09:30:48.013Z,11.43
2019-02-20T09:33:14.801Z,11.90
2019-02-20T09:35:41.586Z,12.40
2019-02-20T09:38:10.425Z,12.40
2019-02-20T09:40:37.277Z,12.87
2019-02-20T09:43:04.274Z,12.50
2019-02-20T09:45:31.508Z,12.00
2019-02-20T09:47:58.502Z,12.20
2019-02-20T09:50:25.506Z,12.53
2019-02-20T09:52:52.954Z,11.23
2019-02-20T09:55:19.903Z,11.47
2019-02-20T09:57:46.717Z,10.20
2019-02-20T10:00:13.929Z,10.57
2019-02-20T10:02:40.843Z,11.63
2019-02-20T10:05:08.041Z,11.80
2019-02-20T10:07:35.543Z,10.50
2019-02-20T10:10:02.722Z,10.57
2019-02-20T10:12:29.653Z,9.43
2019-02-20T10:14:56.446Z,9.87
2019-02-20T10:17:23.256Z,9.03
2019-02-20T10:19:50.141Z,7.00
2019-02-20T10:22:16.947Z,6.83
2019-02-20T10:24:43.853Z,5.33
2019-02-20T10:27:10.669Z,5.90
2019-02-20T10:29:37.465Z,5.87
2019-02-20T10:32:04.379Z,5.83
2019-02-20T10:34:31.273Z,6.70
2019-02-20T10:36:58.065Z,6.63
2019-02-20T10:39:24.957Z,6.00
2019-02-20T10:41:51.846Z,5.10
2019-02-20T10:44:18.741Z,5.03
2019-02-20T10:46:45.644Z,4.70
2019-02-20T10:49:12.454Z,5.23
2019-02-20T10:51:39.230Z,4.00
2019-02-20T10:54:06.025Z,3.60
2019-02-20T10:56:32.916Z,3.43
2019-02-20T10:58:59.966Z,4.07
2019-02-20T11:01:27.036Z,2.90
2019-02-20T11:03:53.957Z,3.33
2019-02-20T11:06:20.950Z,3.47
2019-02-20T11:08:47.860Z,4.10
2019-02-20T11:11:14.769Z,3.43
2019-02-20T11:13:41.578Z,3.30
2019-02-20T11:16:08.470Z,3.23
2019-02-20T11:18:35.390Z,3.50
2019-02-20T11:21:02.382Z,2.93
2019-02-20T11:23:29.299Z,3.33
2019-02-20T11:25:56.201Z,3.50
2019-02-20T11:28:27.068Z,3.17
2019-02-20T11:30:51.888Z,3.07
2019-02-20T11:33:18.797Z,2.50
2019-02-20T11:35:45.609Z,3.23
2019-02-20T11:38:14.152Z,3.73
2019-02-20T11:40:41.202Z,3.73
2019-02-20T11:43:08.012Z,3.93
2019-02-20T11:45:34.933Z,3.60
2019-02-20T11:48:01.758Z,3.53
2019-02-20T11:50:28.672Z,4.40
2019-02-20T11:52:55.689Z,4.57
2019-02-20T11:55:22.692Z,4.70
2019-02-20T11:57:49.698Z,3.80
2019-02-20T12:00:16.728Z,4.27
2019-02-20T12:02:43.530Z,4.70
2019-02-20T12:05:10.545Z,4.40
2019-02-20T12:07:37.461Z,4.00
2019-02-20T12:10:05.204Z,4.43
2019-02-20T12:12:32.197Z,4.83
2019-02-20T12:14:59.109Z,5.23
2019-02-20T12:17:26.109Z,5.63
2019-02-20T12:19:53.013Z,4.93
2019-02-20T12:22:19.909Z,5.50
2019-02-20T12:24:46.822Z,4.30
2019-02-20T12:27:13.833Z,4.80
2019-02-20T12:29:40.729Z,4.53
2019-02-20T12:32:07.732Z,4.50
2019-02-20T12:34:34.741Z,5.80
2019-02-20T12:37:01.631Z,6.00
2019-02-20T12:39:28.544Z,6.30
2019-02-20T12:41:55.470Z,5.37
2019-02-20T12:44:22.457Z,4.90
2019-02-20T12:46:49.449Z,4.60
2019-02-20T12:49:16.358Z,4.60
2019-02-20T12:51:43.366Z,4.23
2019-02-20T12:54:10.273Z,4.73
2019-02-20T12:56:43.707Z,4.57
2019-02-20T12:59:07.856Z,4.20
2019-02-20T13:01:34.824Z,4.10
2019-02-20T13:04:01.870Z,3.80
2019-02-20T13:06:29.823Z,3.60
2019-02-20T13:08:56.872Z,5.10
2019-02-20T13:11:23.719Z,5.20
2019-02-20T13:13:50.655Z,4.93
2019-02-20T13:16:17.469Z,4.53
2019-02-20T13:18:44.305Z,4.80
2019-02-20T13:21:11.204Z,4.60
2019-02-20T13:23:38.182Z,5.07
2019-02-20T13:26:05.172Z,5.27
2019-02-20T13:28:31.963Z,5.00
2019-02-20T13:30:58.853Z,5.20
2019-02-20T13:33:25.871Z,5.23
2019-02-20T13:35:52.669Z,5.20
2019-02-20T13:38:19.465Z,5.73
2019-02-20T13:40:46.473Z,5.07
2019-02-20T13:43:13.253Z,4.57
2019-02-20T13:45:40.391Z,5.23
2019-02-20T13:48:07.273Z,4.83
2019-02-20T13:50:34.269Z,5.00
2019-02-20T13:53:01.272Z,4.80
2019-02-20T13:55:34.192Z,4.93
2019-02-20T13:57:57.125Z,4.90
2019-02-20T14:00:24.054Z,4.30
2019-02-20T14:02:51.145Z,4.50
2019-02-20T14:05:18.547Z,4.47
2019-02-20T14:07:45.349Z,4.73
2019-02-20T14:10:12.454Z,4.70
2019-02-20T14:12:39.425Z,4.00
2019-02-20T14:15:07.874Z,3.67
2019-02-20T14:17:34.745Z,3.97
2019-02-20T14:20:03.192Z,3.90
2019-02-20T14:22:30.165Z,3.90
2019-02-20T14:24:57.405Z,3.60
2019-02-20T14:27:24.373Z,3.27
2019-02-20T14:29:51.237Z,5.67
2019-02-20T14:32:18.139Z,4.00
2019-02-20T14:34:45.565Z,4.00
2019-02-20T14:37:12.676Z,3.40
2019-02-20T14:39:39.681Z,3.33
2019-02-20T14:42:06.786Z,3.30
2019-02-20T14:44:34.070Z,3.97
2019-02-20T14:47:00.967Z,3.93
2019-02-20T14:49:27.982Z,3.73
2019-02-20T14:51:54.890Z,3.70
2019-02-20T14:54:21.781Z,3.80
2019-02-20T14:56:48.793Z,3.90
2019-02-20T14:59:15.783Z,3.70
2019-02-20T15:01:42.797Z,3.93
2019-02-20T15:04:10.027Z,3.83
2019-02-20T15:06:37.074Z,3.80
2019-02-20T15:09:04.708Z,3.70
2019-02-20T15:11:31.877Z,4.10
2019-02-20T15:13:58.965Z,4.00
2019-02-20T15:16:25.983Z,4.23
2019-02-20T15:18:52.990Z,3.57
2019-02-20T15:21:19.998Z,4.10
2019-02-20T15:23:47.021Z,4.10
2019-02-20T15:26:13.924Z,4.03
2019-02-20T15:28:40.835Z,3.77
2019-02-20T15:31:07.864Z,4.37
2019-02-20T15:33:34.985Z,4.43
2019-02-20T15:36:02.003Z,4.67
2019-02-20T15:38:29.016Z,4.20
2019-02-20T15:40:56.553Z,4.23
2019-02-20T15:43:23.563Z,4.33
2019-02-20T15:45:50.576Z,5.00
2019-02-20T15:48:23.257Z,4.87
2019-02-20T15:50:46.506Z,4.53
2019-02-20T15:53:13.404Z,4.33
2019-02-20T15:55:40.315Z,5.07
2019-02-20T15:58:07.291Z,5.07
2019-02-20T16:00:34.905Z,4.33
2019-02-20T16:03:01.807Z,4.23
2019-02-20T16:05:29.005Z,5.00
2019-02-20T16:07:56.135Z,4.90
2019-02-20T16:10:23.038Z,5.00
2019-02-20T16:12:50.029Z,5.60
2019-02-20T16:15:17.017Z,6.33
2019-02-20T16:17:44.889Z,5.07
2019-02-20T16:20:12.358Z,4.53
2019-02-20T16:22:39.364Z,5.40
2019-02-20T16:25:08.394Z,5.20
2019-02-20T16:27:35.312Z,5.50
2019-02-20T16:30:02.512Z,5.83
2019-02-20T16:32:29.640Z,5.50
2019-02-20T16:34:56.516Z,5.13
2019-02-20T16:37:23.538Z,5.57
2019-02-20T16:39:50.729Z,5.80
2019-02-20T16:42:17.654Z,6.27
2019-02-20T16:44:45.712Z,6.40
2019-02-20T16:47:12.872Z,7.17
2019-02-20T16:49:39.893Z,6.73
2019-02-20T16:52:07.199Z,6.40
2019-02-20T16:54:34.269Z,6.90
2019-02-20T16:57:01.311Z,7.77
2019-02-20T16:59:28.284Z,7.33
2019-02-20T17:01:55.427Z,7.60
2019-02-20T17:04:22.558Z,7.90
2019-02-20T17:06:49.574Z,7.70
2019-02-20T17:09:16.507Z,7.63
2019-02-20T17:11:43.669Z,8.20
2019-02-20T17:14:10.799Z,6.67
2019-02-20T17:16:38.169Z,7.37
2019-02-20T17:19:05.305Z,7.90
2019-02-20T17:21:32.317Z,8.73
2019-02-20T17:23:59.525Z,7.17
2019-02-20T17:26:26.603Z,7.87
2019-02-20T17:28:53.766Z,6.93
2019-02-20T17:31:21.072Z,7.73
2019-02-20T17:33:48.197Z,8.43
2019-02-20T17:36:15.598Z,10.30
2019-02-20T17:38:42.701Z,8.53
2019-02-20T17:41:10.023Z,14.70
2019-02-20T17:43:37.081Z,28.43
2019-02-20T17:46:04.266Z,15.50
2019-02-20T17:48:31.538Z,8.77
2019-02-20T17:50:58.604Z,6.80
2019-02-20T17:53:26.186Z,6.50
2019-02-20T17:55:53.261Z,7.27
2019-02-20T17:58:20.360Z,7.33
2019-02-20T18:00:47.563Z,7.57
2019-02-20T18:03:14.537Z,6.60
2019-02-20T18:05:41.841Z,6.23
2019-02-20T18:08:08.942Z,7.10
2019-02-20T18:10:35.921Z,7.43
2019-02-20T18:13:03.334Z,7.60
2019-02-20T18:15:30.242Z,9.80
2019-02-20T18:17:57.340Z,8.90
2019-02-20T18:20:25.150Z,8.23
2019-02-20T18:22:52.429Z,8.60
2019-02-20T18:25:19.504Z,8.87
2019-02-20T18:27:46.676Z,9.20
2019-02-20T18:30:14.347Z,10.10
2019-02-20T18:32:41.478Z,11.33
2019-02-20T18:35:08.841Z,9.17
2019-02-20T18:37:35.844Z,8.87
2019-02-20T18:40:03.545Z,9.53
2019-02-20T18:42:30.441Z,9.33
2019-02-20T18:44:57.371Z,8.67
2019-02-20T18:47:24.473Z,9.30
2019-02-20T18:49:51.511Z,9.07
2019-02-20T18:52:18.493Z,9.57
2019-02-20T18:54:45.531Z,8.67
2019-02-20T18:57:12.530Z,10.20
2019-02-20T18:59:39.342Z,9.60
2019-02-20T19:02:06.258Z,10.90
2019-02-20T19:04:33.164Z,10.83
2019-02-20T19:07:10.977Z,12.17
2019-02-20T19:09:38.240Z,11.90
2019-02-20T19:12:29.530Z,10.70
2019-02-20T19:15:45.746Z,11.87
2019-02-20T19:18:44.685Z,22.27
2019-02-20T19:21:43.607Z,11.67
2019-02-20T19:24:56.668Z,11.27
2019-02-20T19:27:48.172Z,22.50
2019-02-20T19:30:48.229Z,19.03
2019-02-20T19:33:32.613Z,29.97
2019-02-20T19:36:46.641Z,36.17
2019-02-20T19:39:32.186Z,28.90
2019-02-20T19:42:43.076Z,21.10
2019-02-20T19:45:50.777Z,14.70
2019-02-20T19:48:43.180Z,15.80
2019-02-20T19:51:45.916Z,13.90
2019-02-20T19:54:26.166Z,12.30
2019-02-20T19:57:27.889Z,11.83
2019-02-20T20:00:39.076Z,11.33
2019-02-20T20:03:53.744Z,12.17
2019-02-20T20:06:45.394Z,11.93
2019-02-20T20:09:55.628Z,11.50
2019-02-20T20:13:22.648Z,12.33
2019-02-20T20:15:57.477Z,12.50
2019-02-20T20:19:14.410Z,11.73
2019-02-20T20:22:38.352Z,10.43
2019-02-20T20:25:37.811Z,10.23
2019-02-20T20:28:51.862Z,10.60
2019-02-20T20:31:44.625Z,9.87
2019-02-20T20:34:55.627Z,8.10
2019-02-20T20:38:23.230Z,9.20
2019-02-20T20:41:36.859Z,10.00
2019-02-20T20:44:43.471Z,10.83
2019-02-20T20:47:40.826Z,9.30
2019-02-20T20:50:52.825Z,9.50
2019-02-20T20:54:13.448Z,10.60
2019-02-20T20:57:24.704Z,10.93
2019-02-20T21:00:27.861Z,11.80
2019-02-20T21:03:00.168Z,14.40
2019-02-20T21:06:07.645Z,22.47
2019-02-20T21:08:57.228Z,13.37
2019-02-20T21:12:10.406Z,19.70
2019-02-20T21:14:54.740Z,17.47
2019-02-20T21:17:46.440Z,15.20
2019-02-20T21:20:27.108Z,16.00
2019-02-20T21:23:30.186Z,13.67
2019-02-20T21:26:39.215Z,12.17
2019-02-20T21:29:53.200Z,11.90
2019-02-20T21:32:32.961Z,11.53
2019-02-20T21:35:21.641Z,12.17
2019-02-20T21:38:29.878Z,11.57
2019-02-20T21:41:23.702Z,11.60
2019-02-20T21:44:10.696Z,13.83
2019-02-20T21:47:09.450Z,13.30
2019-02-20T21:49:48.716Z,15.03
2019-02-20T21:52:36.239Z,13.53
2019-02-20T21:55:17.874Z,15.03
2019-02-20T21:58:22.778Z,18.53
2019-02-20T22:01:53.300Z,14.83
2019-02-20T22:04:28.470Z,15.70
2019-02-20T22:07:22.168Z,15.75
2019-02-20T22:10:43.441Z,19.00
2019-02-20T22:13:52.734Z,19.17
2019-02-20T22:17:15.622Z,18.25
2019-02-20T22:20:24.239Z,19.10
2019-02-20T22:23:26.301Z,17.53
2019-02-20T22:26:09.268Z,15.43
2019-02-20T22:28:45.145Z,13.63
2019-02-20T22:31:40.197Z,14.25
2019-02-20T22:34:37.837Z,13.67
2019-02-20T22:37:53.962Z,12.93
2019-02-20T22:40:54.788Z,14.20
2019-02-20T22:43:57.661Z,14.60
2019-02-20T22:46:49.817Z,14.38
2019-02-20T22:49:40.009Z,14.00
2019-02-20T22:52:35.169Z,16.50
2019-02-20T22:55:28.113Z,16.57
2019-02-20T22:58:15.190Z,15.58
2019-02-20T23:01:05.585Z,15.25
2019-02-20T23:04:12.392Z,16.32
2019-02-20T23:07:06.303Z,15.18
2019-02-20T23:09:57.597Z,15.58
2019-02-20T23:13:05.329Z,14.25
2019-02-20T23:15:32.245Z,13.83
2019-02-20T23:17:59.265Z,13.88
2019-02-20T23:20:26.274Z,13.78
2019-02-20T23:22:53.217Z,12.98
2019-02-20T23:25:20.117Z,13.03
2019-02-20T23:27:46.929Z,12.88
2019-02-20T23:30:13.939Z,15.30
2019-02-20T23:32:43.142Z,14.87
2019-02-20T23:35:09.644Z,15.58
2019-02-20T23:37:36.553Z,13.48
2019-02-20T23:40:04.795Z,13.20
2019-02-20T23:42:32.033Z,13.62
2019-02-20T23:44:59.048Z,12.58
2019-02-20T23:47:25.969Z,12.95
2019-02-20T23:49:52.944Z,12.78
2019-02-20T23:52:19.788Z,12.50
2019-02-20T23:54:46.599Z,13.13
2019-02-20T23:57:13.508Z,12.15
2019-02-20T23:59:40.333Z,13.78
